Time;durP1;ratioP1;P1;durP2;ratioP2;P2;SDS_P1;SDS_P2;PMS_P1;PMS_P2;Temp;Humidity;BMP_temperature;BMP_pressure;BME280_temperature;BME280_humidity;BME280_pressure;Samples;Min_cycle;Max_cycle;Signal;HPM_P1;HPM_P2
2022/10/24 00:02:06;;;;;;;;;;;22.60;60.90;;;;;;6258819;28;20067;-56
2022/10/24 00:05:07;;;;;;;;;;;23.20;61.00;;;;;;6264376;28;20853;-56
2022/10/24 00:08:13;;;;;;;1.63;0.60;;;23.00;60.70;;;;;;6267617;28;19924;-57
2022/10/24 00:11:17;;;;;;;2.00;0.50;;;22.90;61.00;;;;;;6247572;28;21030;-57
2022/10/24 00:14:19;;;;;;;1.83;0.40;;;23.00;61.20;;;;;;6268773;28;20139;-56
2022/10/24 00:17:23;;;;;;;;;;;23.00;61.60;;;;;;6264526;28;20131;-57
2022/10/24 00:20:24;;;;;;;1.75;0.60;;;23.00;61.70;;;;;;6269405;28;20922;-54
2022/10/24 00:23:26;;;;;;;;;;;23.30;61.90;;;;;;6268611;28;20039;-54
2022/10/24 00:26:28;;;;;;;2.78;0.80;;;22.90;61.90;;;;;;6264617;28;20661;-55
2022/10/24 00:29:30;;;;;;;1.50;0.60;;;23.10;61.70;;;;;;6264508;28;20901;-56
2022/10/24 00:32:31;;;;;;;;;;;23.00;62.10;;;;;;6265287;28;20043;-57
2022/10/24 00:35:33;;;;;;;1.05;0.35;;;22.80;62.30;;;;;;6265662;28;19931;-56
2022/10/24 00:38:38;;;;;;;1.42;0.47;;;23.30;62.30;;;;;;6246844;28;21039;-57
2022/10/24 00:41:41;;;;;;;2.13;0.80;;;23.00;62.30;;;;;;6266155;28;20090;-56
2022/10/24 00:44:43;;;;;;;1.65;0.55;;;22.90;62.20;;;;;;6250030;28;20044;-55
2022/10/24 00:47:45;;;;;;;1.98;0.75;;;23.20;62.60;;;;;;6260610;28;20048;-56
2022/10/24 00:50:50;;;;;;;2.50;0.50;;;22.70;62.00;;;;;;6264449;28;20036;-56
2022/10/24 00:53:57;;;;;;;1.45;0.40;;;22.70;62.30;;;;;;6228712;28;20117;-57
2022/10/24 00:57:07;;;;;;;0.50;0.30;;;22.80;62.30;;;;;;6233431;28;20040;-56
2022/10/24 01:00:13;;;;;;;1.92;0.60;;;22.60;62.10;;;;;;6251379;28;20990;-56
2022/10/24 01:03:15;;;;;;;1.05;0.40;;;23.10;62.50;;;;;;6250898;28;20763;-56
2022/10/24 01:06:28;;;;;;;1.38;0.40;;;23.00;62.70;;;;;;6266018;28;20209;-55
2022/10/24 01:09:47;;;;;;;0.88;0.47;;;23.10;62.40;;;;;;6280649;22;20143;-54
2022/10/24 01:12:59;;;;;;;0.93;0.47;;;23.50;62.70;;;;;;6276972;28;20123;-54
2022/10/24 01:16:04;;;;;;;;;;;23.20;62.50;;;;;;6273630;28;20740;-51
2022/10/24 01:19:19;;;;;;;0.80;0.40;;;22.90;62.70;;;;;;6273879;28;19928;-53
2022/10/24 01:22:25;;;;;;;0.70;0.30;;;23.10;62.40;;;;;;6275375;28;20258;-51
2022/10/24 01:25:37;;;;;;;0.68;0.40;;;23.00;62.40;;;;;;6269612;28;20624;-54
2022/10/24 01:28:48;;;;;;;0.52;0.20;;;23.20;62.40;;;;;;6273555;28;20322;-54
2022/10/24 01:31:54;;;;;;;0.75;0.17;;;22.90;62.10;;;;;;6274812;28;20115;-54
2022/10/24 01:35:01;;;;;;;0.30;0.20;;;22.90;62.30;;;;;;6276169;28;20529;-52
2022/10/24 01:38:10;;;;;;;0.75;0.30;;;23.20;62.40;;;;;;6271311;28;20878;-50
2022/10/24 01:41:16;;;;;;;0.80;0.32;;;23.00;62.30;;;;;;6273985;28;21364;-53
2022/10/24 01:44:22;;;;;;;0.65;0.35;;;23.10;62.40;;;;;;6271873;28;20300;-49
2022/10/24 01:47:28;;;;;;;0.98;0.35;;;22.90;62.30;;;;;;6277695;28;20566;-51
2022/10/24 01:50:32;;;;;;;0.40;0.22;;;23.10;62.40;;;;;;6275105;28;20342;-52
2022/10/24 01:53:35;;;;;;;0.30;0.20;;;23.20;62.40;;;;;;6276930;28;20668;-53
2022/10/24 01:56:36;;;;;;;0.73;0.20;;;23.00;62.20;;;;;;6275354;28;20565;-52
2022/10/24 01:59:42;;;;;;;0.32;0.22;;;23.30;62.70;;;;;;6272343;28;20439;-53
2022/10/24 02:02:49;;;;;;;0.52;0.20;;;22.70;62.00;;;;;;6273147;28;20590;-53
2022/10/24 02:05:54;;;;;;;0.60;0.20;;;23.20;62.30;;;;;;6274171;28;20071;-54
2022/10/24 02:08:58;;;;;;;0.30;0.20;;;23.10;77.10;;;;;;6269157;28;20394;-54
2022/10/24 02:12:00;;;;;;;0.65;0.20;;;23.30;62.30;;;;;;6258795;28;20279;-52
2022/10/24 02:15:05;;;;;;;0.28;0.20;;;23.10;62.20;;;;;;6243053;28;21046;-53
2022/10/24 02:18:09;;;;;;;0.13;0.10;;;22.80;62.00;;;;;;6257718;28;20046;-51
2022/10/24 02:21:18;;;;;;;0.43;0.10;;;22.90;62.00;;;;;;6260922;28;21452;-52
2022/10/24 02:24:23;;;;;;;0.40;0.30;;;22.80;61.80;;;;;;6259872;28;20572;-52
2022/10/24 02:27:30;;;;;;;0.32;0.20;;;23.00;62.00;;;;;;6247041;28;20048;-52
2022/10/24 02:30:38;;;;;;;0.55;0.30;;;22.90;62.00;;;;;;6261862;28;20797;-54
2022/10/24 02:33:42;;;;;;;0.93;0.47;;;22.80;61.80;;;;;;6259219;28;20331;-52
2022/10/24 02:36:46;;;;;;;0.20;0.10;;;22.80;61.80;;;;;;6260817;28;20155;-55
2022/10/24 02:39:48;;;;;;;0.98;0.20;;;23.10;62.00;;;;;;6265759;28;20041;-57
2022/10/24 02:42:54;;;;;;;0.40;0.30;;;22.90;61.90;;;;;;6265616;28;20044;-54
2022/10/24 02:45:57;;;;;;;0.60;0.20;;;23.10;61.90;;;;;;6255536;28;20328;-51
2022/10/24 02:49:02;;;;;;;0.70;0.20;;;22.90;61.60;;;;;;6258693;28;20162;-51
2022/10/24 02:52:04;;;;;;;0.57;0.20;;;22.90;61.60;;;;;;6260144;28;20134;-53
2022/10/24 02:55:06;;;;;;;0.73;0.38;;;23.00;61.80;;;;;;6258922;28;20031;-51
2022/10/24 02:58:07;;;;;;;0.43;0.30;;;22.80;61.50;;;;;;6251753;28;20085;-53
2022/10/24 03:01:09;;;;;;;0.65;0.20;;;23.00;61.60;;;;;;6255877;28;20393;-53
2022/10/24 03:04:11;;;;;;;0.30;0.10;;;23.10;61.90;;;;;;6254982;28;20048;-50
2022/10/24 03:07:12;;;;;;;0.32;0.10;;;22.30;61.20;;;;;;6259064;28;20430;-52
2022/10/24 03:10:14;;;;;;;0.30;0.20;;;23.30;61.90;;;;;;6258554;28;20039;-50
2022/10/24 03:13:16;;;;;;;0.40;0.20;;;22.60;61.50;;;;;;6261451;28;20389;-54
2022/10/24 03:16:17;;;;;;;1.40;0.40;;;23.50;62.10;;;;;;6259456;28;20552;-55
2022/10/24 03:19:19;;;;;;;0.28;0.10;;;22.90;61.70;;;;;;6265913;28;20098;-54
2022/10/24 03:22:21;;;;;;;0.47;0.20;;;23.10;61.80;;;;;;6267343;28;20143;-56
2022/10/24 03:25:31;;;;;;;0.30;0.20;;;22.60;61.70;;;;;;6264463;28;20227;-54
2022/10/24 03:28:33;;;;;;;0.50;0.22;;;22.60;61.70;;;;;;6260324;28;20386;-51
2022/10/24 03:31:35;;;;;;;;;;;23.00;62.00;;;;;;6265069;28;20046;-51
2022/10/24 03:34:37;;;;;;;1.33;0.20;;;22.50;61.40;;;;;;6261420;28;20406;-52
2022/10/24 03:37:38;;;;;;;1.45;0.30;;;22.80;61.70;;;;;;6260702;28;20423;-51
2022/10/24 03:40:41;;;;;;;0.65;0.20;;;23.00;61.90;;;;;;6258689;28;20079;-53
2022/10/24 03:43:43;;;;;;;0.30;0.20;;;22.90;61.50;;;;;;6262290;28;20044;-53
2022/10/24 03:46:44;;;;;;;0.10;0.10;;;23.10;62.00;;;;;;6260995;28;20674;-51
2022/10/24 03:49:46;;;;;;;0.38;0.20;;;23.00;62.00;;;;;;6262854;28;20466;-53
2022/10/24 03:52:48;;;;;;;0.20;0.10;;;23.10;62.00;;;;;;6258318;28;20602;-54
2022/10/24 03:55:49;;;;;;;1.02;0.40;;;22.90;62.00;;;;;;6287704;28;20047;-53
2022/10/24 03:58:51;;;;;;;0.28;0.10;;;23.10;62.10;;;;;;6261160;28;20048;-56
2022/10/24 04:01:52;;;;;;;;;;;23.20;62.20;;;;;;6259899;28;20825;-54
2022/10/24 04:04:54;;;;;;;0.17;0.08;;;23.20;62.40;;;;;;6260459;28;20318;-54
2022/10/24 04:07:55;;;;;;;0.60;0.20;;;23.10;62.20;;;;;;6256600;28;20040;-50
2022/10/24 04:10:57;;;;;;;;;;;22.50;61.80;;;;;;6265358;28;20084;-52
2022/10/24 04:13:59;;;;;;;0.63;0.20;;;23.10;62.40;;;;;;6264825;28;19928;-54
2022/10/24 04:17:01;;;;;;;0.28;0.20;;;23.00;62.00;;;;;;6258470;28;20220;-54
2022/10/24 04:20:04;;;;;;;0.10;0.10;;;22.80;61.80;;;;;;6259558;28;20140;-55
2022/10/24 04:23:05;;;;;;;0.55;0.20;;;22.70;61.80;;;;;;6261375;28;20456;-54
2022/10/24 04:26:07;;;;;;;0.57;0.20;;;22.40;61.90;;;;;;6256061;28;20331;-52
2022/10/24 04:29:08;;;;;;;0.40;0.15;;;22.90;62.30;;;;;;6257933;28;20481;-52
2022/10/24 04:32:09;;;;;;;;;;;23.10;62.30;;;;;;6257325;28;20532;-53
2022/10/24 04:35:12;;;;;;;0.35;0.10;;;23.30;62.70;;;;;;6258229;28;20491;-53
2022/10/24 04:38:14;;;;;;;0.52;0.10;;;23.00;62.20;;;;;;6254555;28;20048;-52
2022/10/24 04:41:15;;;;;;;0.50;0.20;;;23.10;62.30;;;;;;6255044;28;20474;-54
2022/10/24 04:44:20;;;;;;;;;;;22.90;62.30;;;;;;6258354;28;20040;-53
2022/10/24 04:47:21;;;;;;;0.40;0.20;;;23.10;62.50;;;;;;6254977;28;20043;-53
2022/10/24 04:50:23;;;;;;;0.25;0.10;;;22.80;62.10;;;;;;6258027;28;20521;-55
2022/10/24 04:53:25;;;;;;;0.28;0.20;;;22.80;62.10;;;;;;6255821;28;20484;-51
2022/10/24 04:56:26;;;;;;;0.40;0.22;;;22.50;62.20;;;;;;6256231;28;20120;-56
2022/10/24 04:59:27;;;;;;;;;;;23.00;62.50;;;;;;6249015;28;20068;-58
2022/10/24 05:02:29;;;;;;;0.43;0.10;;;22.80;62.50;;;;;;6252593;28;19924;-55
2022/10/24 05:05:31;;;;;;;0.40;0.22;;;22.70;62.30;;;;;;6259686;28;20050;-57
2022/10/24 05:08:32;;;;;;;0.38;0.20;;;22.70;62.40;;;;;;6260974;28;20041;-59
2022/10/24 05:11:34;;;;;;;;;;;22.60;62.40;;;;;;6262343;28;20117;-57
2022/10/24 05:14:35;;;;;;;0.50;0.10;;;22.70;62.60;;;;;;6261908;28;19930;-57
2022/10/24 05:17:37;;;;;;;1.58;0.20;;;22.80;62.50;;;;;;6261305;28;20040;-56
2022/10/24 05:20:39;;;;;;;;;;;22.60;62.40;;;;;;6262046;28;20072;-57
2022/10/24 05:23:45;;;;;;;0.65;0.20;;;23.10;63.00;;;;;;6242059;28;19928;-57
2022/10/24 05:26:47;;;;;;;1.25;0.63;;;22.80;62.40;;;;;;6253558;28;20448;-50
2022/10/24 05:29:48;;;;;;;;;;;22.90;62.70;;;;;;6247210;28;20460;-55
2022/10/24 05:32:50;;;;;;;0.50;0.17;;;22.70;62.90;;;;;;6249702;28;19961;-54
2022/10/24 05:35:52;;;;;;;0.40;0.20;;;23.10;62.60;;;;;;6249083;28;20166;-54
2022/10/24 05:38:54;;;;;;;1.05;0.32;;;22.90;62.60;;;;;;6254184;28;20835;-54
2022/10/24 05:41:55;;;;;;;;;;;22.90;62.80;;;;;;6254262;28;20070;-54
2022/10/24 05:44:57;;;;;;;0.70;0.50;;;23.10;62.80;;;;;;6247218;28;20948;-50
2022/10/24 05:47:58;;;;;;;0.77;0.30;;;22.90;62.50;;;;;;6254111;28;20130;-59
2022/10/24 05:51:00;;;;;;;;;;;23.10;62.90;;;;;;6249948;28;20044;-57
2022/10/24 05:54:02;;;;;;;0.85;0.40;;;23.00;63.10;;;;;;6247522;28;20516;-50
2022/10/24 05:57:03;;;;;;;1.33;0.40;;;22.50;62.70;;;;;;6236543;28;20568;-51
2022/10/24 06:00:06;;;;;;;1.70;0.50;;;22.70;63.00;;;;;;6241579;28;20105;-58
2022/10/24 06:03:12;;;;;;;1.38;0.43;;;22.50;62.60;;;;;;6235164;28;20052;-53
2022/10/24 06:06:14;;;;;;;0.77;0.40;;;22.60;63.00;;;;;;6230331;28;20047;-56
2022/10/24 06:09:16;;;;;;;0.63;0.43;;;22.90;63.00;;;;;;6234155;28;20076;-56
2022/10/24 06:12:17;;;;;;;1.05;0.30;;;22.90;63.20;;;;;;6225312;28;20046;-54
2022/10/24 06:15:19;;;;;;;;;;;22.40;63.30;;;;;;6203328;28;21199;-57
2022/10/24 06:18:20;;;;;;;0.50;0.30;;;22.80;63.30;;;;;;6197450;28;20058;-55
2022/10/24 06:21:22;;;;;;;;;;;22.90;63.20;;;;;;6186692;28;20168;-54
2022/10/24 06:24:27;;;;;;;1.00;0.35;;;23.00;63.40;;;;;;6189262;28;19928;-55
2022/10/24 06:27:28;;;;;;;1.42;0.60;;;22.90;63.20;;;;;;6165674;28;20172;-55
2022/10/24 06:30:30;;;;;;;;;;;22.60;63.20;;;;;;6173491;28;20138;-53
2022/10/24 06:33:31;;;;;;;1.00;0.38;;;23.00;63.40;;;;;;6164052;28;19982;-56
2022/10/24 06:36:35;;;;;;;0.82;0.45;;;22.70;63.20;;;;;;6152301;28;20043;-56
2022/10/24 06:39:37;;;;;;;0.60;0.30;;;23.20;63.00;;;;;;6149091;28;20087;-55
2022/10/24 06:42:38;;;;;;;0.43;0.25;;;22.60;63.00;;;;;;6153943;28;20093;-55
2022/10/24 06:45:40;;;;;;;0.45;0.20;;;22.70;62.90;;;;;;6174536;28;20167;-55
2022/10/24 06:48:41;;;;;;;;;;;22.20;62.80;;;;;;6169761;28;20114;-55
2022/10/24 06:51:45;;;;;;;0.52;0.28;;;22.90;63.20;;;;;;6158374;28;19935;-54
2022/10/24 06:54:52;;;;;;;1.27;0.50;;;22.70;62.80;;;;;;6135401;28;20051;-54
2022/10/24 06:57:54;;;;;;;1.20;0.40;;;22.50;62.60;;;;;;6139762;28;20299;-54
2022/10/24 07:00:55;;;;;;;;;;;22.80;63.10;;;;;;6127780;28;20191;-54
2022/10/24 07:03:57;;;;;;;1.33;0.38;;;22.50;63.00;;;;;;6092294;28;19936;-56
2022/10/24 07:06:59;;;;;;;5.68;0.50;;;23.00;63.30;;;;;;6091252;28;20182;-56
2022/10/24 07:10:01;;;;;;;1.25;0.38;;;23.00;63.30;;;;;;6106163;28;20151;-56
2022/10/24 07:13:02;;;;;;;2.42;0.35;;;22.70;63.60;;;;;;6089348;28;20051;-58
2022/10/24 07:16:05;;;;;;;1.42;0.38;;;23.00;63.70;;;;;;6089926;28;20163;-54
2022/10/24 07:19:08;;;;;;;1.67;0.40;;;23.10;63.90;;;;;;6083726;28;20062;-56
2022/10/24 07:22:10;;;;;;;1.67;0.60;;;23.00;62.30;;;;;;6094882;28;20044;-54
2022/10/24 07:25:12;;;;;;;1.95;0.40;;;23.20;64.00;;;;;;6084957;28;20068;-56
2022/10/24 07:28:14;;;;;;;1.13;0.57;;;22.90;63.60;;;;;;6075615;28;20187;-54
2022/10/24 07:31:16;;;;;;;0.85;0.45;;;22.80;63.40;;;;;;6030310;28;20040;-55
2022/10/24 07:34:20;;;;;;;2.05;0.63;;;23.00;63.30;;;;;;6079488;22;20148;-56
2022/10/24 07:37:23;;;;;;;1.25;0.55;;;23.00;63.30;;;;;;6063068;28;20052;-58
2022/10/24 07:40:28;;;;;;;1.23;0.40;;;23.20;63.20;;;;;;5995681;28;20048;-58
2022/10/24 07:43:30;;;;;;;3.80;0.75;;;23.20;63.60;;;;;;5988037;28;20054;-56
2022/10/24 07:46:31;;;;;;;;;;;23.10;63.40;;;;;;6002735;28;20055;-60
2022/10/24 07:49:33;;;;;;;2.25;0.35;;;23.30;63.70;;;;;;5997433;28;25745;-57
2022/10/24 07:52:35;;;;;;;1.55;0.40;;;23.30;63.30;;;;;;6032012;28;20341;-56
2022/10/24 07:55:38;;;;;;;1.05;0.38;;;23.30;63.40;;;;;;6014485;28;20173;-57
2022/10/24 07:58:40;;;;;;;2.08;0.30;;;23.20;62.90;;;;;;6027644;28;20175;-54
2022/10/24 08:01:41;;;;;;;0.70;0.30;;;22.80;62.70;;;;;;5994972;28;20149;-60
2022/10/24 08:04:45;;;;;;;0.82;0.47;;;22.90;62.70;;;;;;6034538;28;20158;-56
2022/10/24 08:07:47;;;;;;;0.85;0.40;;;23.50;63.00;;;;;;6011114;28;20192;-54
2022/10/24 08:11:11;;;;;;;0.60;0.30;;;23.30;62.70;;;;;;5992441;28;20119;-59
2022/10/24 08:14:12;;;;;;;0.93;0.50;;;23.30;62.60;;;;;;5965624;28;20163;-55
2022/10/24 08:17:16;;;;;;;1.83;0.43;;;23.30;62.60;;;;;;6022753;28;21254;-59
2022/10/24 08:20:17;;;;;;;1.52;0.50;;;23.20;62.50;;;;;;6025370;28;20047;-58
2022/10/24 08:23:19;;;;;;;1.42;0.20;;;22.90;62.30;;;;;;6035632;28;27763;-54
2022/10/24 08:26:27;;;;;;;1.08;0.43;;;23.30;62.60;;;;;;6026839;28;21387;-55
2022/10/24 08:29:29;;;;;;;2.38;0.45;;;23.40;62.50;;;;;;6027555;28;20394;-56
2022/10/24 08:32:31;;;;;;;0.95;0.30;;;23.30;62.30;;;;;;6012390;28;20040;-57
2022/10/24 08:35:32;;;;;;;0.60;0.30;;;23.50;62.30;;;;;;6030447;28;20241;-58
2022/10/24 08:38:34;;;;;;;0.90;0.40;;;23.50;62.00;;;;;;6054998;28;20167;-58
2022/10/24 08:41:45;;;;;;;6.07;0.80;;;23.50;61.60;;;;;;6071976;28;20785;-57
2022/10/24 08:44:47;;;;;;;0.50;0.28;;;23.60;61.60;;;;;;6076008;28;20153;-56
2022/10/24 08:47:55;;;;;;;0.90;0.40;;;23.00;61.50;;;;;;6056685;28;20086;-59
2022/10/24 08:51:05;;;;;;;1.05;0.55;;;23.60;61.60;;;;;;6055297;28;20040;-59
2022/10/24 08:54:12;;;;;;;1.67;0.30;;;23.50;61.40;;;;;;6060515;28;20770;-57
2022/10/24 08:57:21;;;;;;;1.73;0.55;;;23.70;61.60;;;;;;6046732;28;21214;-59
2022/10/24 09:00:25;;;;;;;3.50;0.50;;;23.90;61.70;;;;;;6032168;28;23163;-58
2022/10/24 09:03:32;;;;;;;0.82;0.38;;;23.50;61.50;;;;;;5941169;28;21551;-58
2022/10/24 09:06:54;;;;;;;0.73;0.32;;;23.70;61.60;;;;;;5983185;28;20300;-56
2022/10/24 09:10:05;;;;;;;2.83;0.30;;;23.70;61.50;;;;;;6026813;28;20104;-57
2022/10/24 09:13:12;;;;;;;1.15;0.40;;;23.40;61.80;;;;;;6037018;28;21636;-58
2022/10/24 09:16:21;;;;;;;1.00;0.28;;;23.60;61.20;;;;;;6012127;28;20048;-58
2022/10/24 09:19:25;;;;;;;0.90;0.40;;;23.80;61.40;;;;;;6061509;28;20174;-58
2022/10/24 09:22:32;;;;;;;1.52;0.45;;;23.90;61.30;;;;;;6052224;28;20036;-55
2022/10/24 09:25:40;;;;;;;0.55;0.30;;;23.60;61.10;;;;;;6017047;28;21030;-53
2022/10/24 09:28:42;;;;;;;1.13;0.40;;;23.80;61.10;;;;;;6053301;28;20094;-54
2022/10/24 09:31:43;;;;;;;1.00;0.30;;;23.90;61.00;;;;;;6057759;28;20039;-57
2022/10/24 09:34:45;;;;;;;1.02;0.30;;;23.80;60.90;;;;;;6070813;28;22263;-56
2022/10/24 09:37:49;;;;;;;0.38;0.17;;;23.80;60.80;;;;;;6039516;28;20037;-55
2022/10/24 09:40:56;;;;;;;0.93;0.22;;;23.90;60.80;;;;;;6007700;28;20040;-57
2022/10/24 09:43:59;;;;;;;1.33;0.40;;;23.90;60.70;;;;;;6042839;28;20181;-57
2022/10/24 09:47:03;;;;;;;1.25;0.30;;;23.90;61.00;;;;;;6022514;28;20044;-55
2022/10/24 09:50:05;;;;;;;2.72;0.38;;;24.10;60.90;;;;;;6053370;28;20032;-54
2022/10/24 09:53:22;;;;;;;0.52;0.28;;;24.00;60.90;;;;;;6028295;28;20048;-57
2022/10/24 09:56:34;;;;;;;1.58;0.30;;;23.60;60.40;;;;;;6043465;28;21867;-52
2022/10/24 09:59:43;;;;;;;0.85;0.32;;;23.70;59.90;;;;;;6046080;28;20052;-53
2022/10/24 10:02:56;;;;;;;0.73;0.17;;;23.60;60.10;;;;;;6021893;28;20042;-49
2022/10/24 10:06:03;;;;;;;11.68;0.70;;;23.90;60.20;;;;;;6020546;28;21815;-54
2022/10/24 10:09:12;;;;;;;0.95;0.25;;;23.50;59.90;;;;;;6077099;28;20051;-52
2022/10/24 10:12:25;;;;;;;0.80;0.30;;;24.00;60.00;;;;;;6064061;28;20093;-53
2022/10/24 10:15:33;;;;;;;0.77;0.20;;;23.50;59.60;;;;;;6014049;28;20907;-50
2022/10/24 10:18:45;;;;;;;1.02;0.25;;;24.00;60.00;;;;;;6043596;28;20106;-54
2022/10/24 10:21:56;;;;;;;0.95;0.43;;;23.90;59.70;;;;;;6058100;28;20040;-53
2022/10/24 10:24:59;;;;;;;0.80;0.30;;;23.90;59.70;;;;;;6045179;28;20125;-51
2022/10/24 10:28:01;;;;;;;0.60;0.20;;;24.00;59.60;;;;;;6112447;22;20092;-50
2022/10/24 10:31:06;;;;;;;1.05;0.28;;;24.00;59.60;;;;;;6088965;28;20536;-53
2022/10/24 10:34:17;;;;;;;0.40;0.20;;;24.10;59.60;;;;;;6100846;28;20095;-53
2022/10/24 10:37:26;;;;;;;1.23;0.30;;;24.00;59.40;;;;;;6091091;28;20130;-54
2022/10/24 10:40:32;;;;;;;0.35;0.20;;;23.40;58.90;;;;;;6120294;28;20044;-50
2022/10/24 10:43:39;;;;;;;0.77;0.20;;;23.70;59.10;;;;;;6100771;28;20367;-52
2022/10/24 10:46:48;;;;;;;1.25;0.30;;;24.00;59.20;;;;;;6134489;28;20043;-54
2022/10/24 10:49:56;;;;;;;0.82;0.30;;;24.00;59.20;;;;;;6128738;28;20163;-52
2022/10/24 10:53:08;;;;;;;1.75;0.40;;;23.60;59.10;;;;;;6126440;28;20040;-55
2022/10/24 10:56:30;;;;;;;1.20;0.55;;;23.70;59.00;;;;;;6103975;28;25869;-51
2022/10/24 10:59:43;;;;;;;1.15;0.20;;;23.70;59.20;;;;;;6131311;28;20049;-55
2022/10/24 11:03:07;;;;;;;1.02;0.40;;;23.90;59.20;;;;;;6134317;28;21358;-53
2022/10/24 11:06:22;;;;;;;2.28;0.30;;;24.00;59.30;;;;;;6133181;28;20047;-54
2022/10/24 11:09:28;;;;;;;0.45;0.20;;;24.00;59.30;;;;;;6140244;28;20052;-54
2022/10/24 11:12:34;;;;;;;0.57;0.30;;;24.10;59.40;;;;;;6139509;28;20066;-54
2022/10/24 11:15:41;;;;;;;1.15;0.35;;;23.80;59.30;;;;;;6143841;28;20051;-51
2022/10/24 11:18:46;;;;;;;0.25;0.15;;;23.80;59.50;;;;;;6132293;28;22598;-57
2022/10/24 11:21:49;;;;;;;0.63;0.15;;;23.70;60.00;;;;;;6159971;28;20040;-56
2022/10/24 11:24:56;;;;;;;0.85;0.40;;;24.30;59.80;;;;;;6140880;28;20135;-56
2022/10/24 11:28:04;;;;;;;0.77;0.30;;;23.80;59.50;;;;;;6143222;28;20052;-55
2022/10/24 11:31:12;;;;;;;0.63;0.30;;;24.00;59.80;;;;;;6132812;28;22093;-55
2022/10/24 11:34:20;;;;;;;0.68;0.28;;;24.10;59.90;;;;;;6148232;28;21803;-56
2022/10/24 11:37:28;;;;;;;1.02;0.25;;;24.00;59.90;;;;;;6127997;28;20059;-53
2022/10/24 11:40:30;;;;;;;0.57;0.20;;;24.00;59.90;;;;;;6086740;28;20045;-56
2022/10/24 11:43:39;;;;;;;0.40;0.20;;;23.90;60.00;;;;;;6098708;28;20101;-55
2022/10/24 11:46:47;;;;;;;0.57;0.30;;;24.00;60.00;;;;;;6075352;28;20119;-57
2022/10/24 11:49:54;;;;;;;0.50;0.20;;;23.90;60.00;;;;;;6076430;28;20056;-56
2022/10/24 11:53:01;;;;;;;0.20;0.20;;;23.90;60.00;;;;;;6072572;28;20048;-56
2022/10/24 11:56:11;;;;;;;0.93;0.40;;;23.80;60.10;;;;;;6074361;28;20040;-56
2022/10/24 11:59:17;;;;;;;0.73;0.20;;;24.40;60.40;;;;;;6013090;28;20572;-57
2022/10/24 12:02:43;;;;;;;2.30;0.40;;;23.90;59.90;;;;;;5964974;28;20057;-58
2022/10/24 12:05:58;;;;;;;1.15;0.20;;;24.10;60.40;;;;;;5995724;28;29469;-59
2022/10/24 12:09:14;;;;;;;0.93;0.40;;;24.20;60.50;;;;;;6000120;28;20180;-58
2022/10/24 12:12:37;;;;;;;0.30;0.20;;;24.10;60.60;;;;;;6009146;28;20055;-59
2022/10/24 12:15:47;;;;;;;0.43;0.10;;;23.80;60.70;;;;;;6016841;28;22054;-56
2022/10/24 12:18:55;;;;;;;0.75;0.20;;;24.00;61.00;;;;;;6031049;28;20142;-57
2022/10/24 12:22:00;;;;;;;1.65;0.38;;;24.10;60.90;;;;;;6042478;28;20040;-57
2022/10/24 12:25:05;;;;;;;0.55;0.20;;;23.80;60.80;;;;;;6015634;28;20048;-55
2022/10/24 12:28:18;;;;;;;1.02;0.17;;;24.00;61.20;;;;;;5988699;28;20052;-57
2022/10/24 12:31:25;;;;;;;0.98;0.30;;;23.90;61.10;;;;;;5992858;28;20052;-58
2022/10/24 12:34:41;;;;;;;0.40;0.30;;;24.10;61.00;;;;;;5954065;28;25146;-55
2022/10/24 12:37:50;;;;;;;0.40;0.20;;;24.10;61.00;;;;;;5946185;28;29708;-57
2022/10/24 12:40:58;;;;;;;0.40;0.20;;;24.20;61.10;;;;;;5994627;28;28135;-58
2022/10/24 12:44:17;;;;;;;0.40;0.20;;;24.10;61.00;;;;;;6011442;28;20477;-57
2022/10/24 12:47:30;;;;;;;0.40;0.20;;;23.90;60.80;;;;;;6001030;28;20044;-57
2022/10/24 12:50:55;;;;;;;0.75;0.20;;;23.50;60.80;;;;;;5993705;28;29398;-57
2022/10/24 12:54:12;;;;;;;0.80;0.25;;;24.10;61.00;;;;;;6004103;28;20078;-58
2022/10/24 12:57:21;;;;;;;0.73;0.47;;;24.20;61.20;;;;;;5983999;28;20055;-56
2022/10/24 13:00:28;;;;;;;0.65;0.13;;;24.10;61.40;;;;;;5963298;28;31312;-57
2022/10/24 13:03:44;;;;;;;0.55;0.20;;;24.10;61.30;;;;;;5983539;28;20040;-58
2022/10/24 13:07:00;;;;;;;0.52;0.25;;;24.10;61.30;;;;;;5960288;28;20630;-57
2022/10/24 13:10:18;;;;;;;0.20;0.20;;;24.00;61.20;;;;;;5995652;28;20110;-56
2022/10/24 13:13:38;;;;;;;0.80;0.20;;;23.80;61.00;;;;;;6003897;28;20135;-57
2022/10/24 13:16:45;;;;;;;0.50;0.20;;;23.80;61.10;;;;;;6001114;28;20688;-55
2022/10/24 13:19:47;;;;;;;0.60;0.30;;;;;;;;;;6004532;28;22433;-57
2022/10/24 13:22:58;;;;;;;0.57;0.20;;;23.90;60.20;;;;;;5958502;28;30038;-55
2022/10/24 13:26:01;;;;;;;0.57;0.30;;;24.20;61.10;;;;;;5982490;28;30475;-57
2022/10/24 13:29:03;;;;;;;1.00;0.30;;;24.00;61.00;;;;;;6006083;28;20051;-56
2022/10/24 13:32:29;;;;;;;0.88;0.30;;;24.10;60.90;;;;;;6001262;28;20488;-58
2022/10/24 13:35:31;;;;;;;0.40;0.20;;;23.80;60.40;;;;;;6006698;28;29334;-58
2022/10/24 13:38:36;;;;;;;0.70;0.30;;;24.10;60.50;;;;;;5998121;28;20048;-57
2022/10/24 13:41:42;;;;;;;0.50;0.20;;;23.80;60.30;;;;;;6022305;28;20037;-55
2022/10/24 13:44:47;;;;;;;0.93;0.20;;;23.90;60.10;;;;;;6007498;28;20048;-57
2022/10/24 13:47:52;;;;;;;2.65;0.30;;;23.80;60.60;;;;;;5980120;28;20138;-58
2022/10/24 13:51:04;;;;;;;0.60;0.30;;;24.10;60.30;;;;;;5983615;28;30789;-58
2022/10/24 13:54:12;;;;;;;0.93;0.38;;;23.60;59.80;;;;;;5985187;28;21152;-57
2022/10/24 13:57:23;;;;;;;0.60;0.30;;;24.30;60.20;;;;;;5963625;28;29660;-57
2022/10/24 14:00:27;;;;;;;0.90;0.28;;;23.80;59.50;;;;;;5984829;28;20165;-57
2022/10/24 14:03:31;;;;;;;1.08;0.40;;;24.50;60.20;;;;;;5929427;28;20041;-48
2022/10/24 14:06:33;;;;;;;1.17;0.30;;;23.90;59.90;;;;;;5988684;28;20044;-49
2022/10/24 14:09:40;;;;;;;0.98;0.35;;;23.70;60.00;;;;;;5973630;28;20048;-47
2022/10/24 14:12:43;;;;;;;0.90;0.38;;;23.80;59.80;;;;;;5983676;28;24893;-52
2022/10/24 14:15:47;;;;;;;1.50;0.20;;;24.30;59.90;;;;;;5943631;28;20049;-53
2022/10/24 14:18:49;;;;;;;0.60;0.20;;;24.20;59.70;;;;;;5978213;28;20572;-52
2022/10/24 14:21:51;;;;;;;0.50;0.10;;;24.30;59.50;;;;;;5993027;28;20048;-54
2022/10/24 14:24:53;;;;;;;1.17;0.40;;;24.10;59.20;;;;;;5989470;28;20045;-53
2022/10/24 14:27:58;;;;;;;1.10;0.28;;;24.00;59.00;;;;;;5965260;28;20055;-55
2022/10/24 14:31:03;;;;;;;0.55;0.20;;;23.90;58.70;;;;;;5923386;28;27474;-54
2022/10/24 14:34:08;;;;;;;0.75;0.22;;;24.30;58.60;;;;;;5974266;28;31225;-54
2022/10/24 14:37:14;;;;;;;0.70;0.30;;;24.40;58.40;;;;;;5969301;28;20049;-50
2022/10/24 14:40:17;;;;;;;0.93;0.20;;;24.40;58.10;;;;;;5981421;28;29688;-53
2022/10/24 14:43:27;;;;;;;1.20;0.38;;;24.40;57.80;;;;;;6011140;22;20324;-51
2022/10/24 14:46:34;;;;;;;0.70;0.20;;;24.40;57.90;;;;;;5869731;28;21766;-53
2022/10/24 14:49:36;;;;;;;0.32;0.25;;;24.60;57.70;;;;;;5942119;28;20095;-59
2022/10/24 14:52:38;;;;;;;0.43;0.20;;;24.60;57.50;;;;;;5905388;28;30714;-60
2022/10/24 14:55:40;;;;;;;0.60;0.20;;;24.90;57.40;;;;;;5945521;28;20048;-60
2022/10/24 14:58:42;;;;;;;0.73;0.20;;;24.70;57.20;;;;;;5955196;28;20050;-60
2022/10/24 15:01:52;;;;;;;1.10;0.20;;;24.60;56.90;;;;;;5906813;28;20056;-59
2022/10/24 15:05:24;;;;;;;0.38;0.20;;;24.30;57.00;;;;;;5904187;28;20152;-58
2022/10/24 15:08:34;;;;;;;0.90;0.22;;;24.60;57.10;;;;;;5919253;28;20057;-57
2022/10/24 15:11:39;;;;;;;0.23;0.20;;;24.70;56.50;;;;;;5900569;28;30529;-60
2022/10/24 15:14:46;;;;;;;0.57;0.30;;;24.60;56.50;;;;;;5914249;28;20050;-59
2022/10/24 15:17:48;;;;;;;0.90;0.40;;;24.40;56.30;;;;;;5960137;28;20046;-58
2022/10/24 15:20:53;;;;;;;0.32;0.20;;;24.50;56.30;;;;;;5963842;28;20165;-60
2022/10/24 15:23:57;;;;;;;0.57;0.32;;;24.70;56.20;;;;;;5957462;28;30281;-58
2022/10/24 15:27:10;;;;;;;0.40;0.28;;;24.50;56.40;;;;;;5956227;28;21051;-60
2022/10/24 15:30:14;;;;;;;0.70;0.20;;;24.70;56.00;;;;;;5952562;28;21472;-59
2022/10/24 15:33:18;;;;;;;0.20;0.10;;;24.70;55.90;;;;;;5963529;28;20048;-60
2022/10/24 15:36:22;;;;;;;1.27;0.68;;;24.20;55.60;;;;;;5999846;28;21576;-58
2022/10/24 15:39:24;;;;;;;0.80;0.20;;;24.40;56.20;;;;;;5949047;28;20049;-57
2022/10/24 15:42:26;;;;;;;2.05;0.57;;;24.50;55.70;;;;;;5956408;28;20066;-57
2022/10/24 15:45:28;;;;;;;0.52;0.30;;;24.60;55.50;;;;;;5972100;28;20041;-58
2022/10/24 15:48:29;;;;;;;0.95;0.40;;;24.60;55.60;;;;;;5978408;28;20108;-58
2022/10/24 15:51:31;;;;;;;1.77;0.63;;;24.70;55.50;;;;;;5972625;28;22512;-55
2022/10/24 15:54:33;;;;;;;1.08;0.20;;;24.40;55.30;;;;;;5968020;28;22954;-57
2022/10/24 15:57:35;;;;;;;0.80;0.30;;;24.40;55.30;;;;;;5950876;28;21285;-59
2022/10/24 16:00:37;;;;;;;1.00;0.20;;;24.60;55.40;;;;;;5984111;28;20057;-58
2022/10/24 16:03:39;;;;;;;1.38;0.50;;;24.80;55.50;;;;;;5974746;28;21119;-59
2022/10/24 16:06:40;;;;;;;0.68;0.20;;;24.30;55.40;;;;;;6008151;28;20046;-57
2022/10/24 16:09:42;;;;;;;0.77;0.20;;;24.30;55.30;;;;;;6041271;28;20049;-56
2022/10/24 16:12:45;;;;;;;1.40;0.30;;;24.50;55.40;;;;;;6045304;28;20049;-59